Time;durP1;ratioP1;P1;durP2;ratioP2;P2;SDS_P1;SDS_P2;PMS_P1;PMS_P2;Temp;Humidity;BMP_temperature;BMP_pressure;BME280_temperature;BME280_humidity;BME280_pressure;Samples;Min_cycle;Max_cycle;Signal;HPM_P1;HPM_P2
2023/03/08 00:00:52;;;;;;;2.80;1.40;;;4.90;99.90;;;;;;5095318;28;20435;-57
2023/03/08 00:03:20;;;;;;;2.55;1.20;;;4.90;99.90;;;;;;5094571;28;20414;-57
2023/03/08 00:05:47;;;;;;;3.20;1.90;;;4.90;99.90;;;;;;5094829;28;20418;-59
2023/03/08 00:08:14;;;;;;;2.70;1.30;;;4.90;99.90;;;;;;5092986;28;21088;-57
2023/03/08 00:10:41;;;;;;;4.03;1.45;;;4.90;99.90;;;;;;5094014;28;20421;-58
2023/03/08 00:13:11;;;;;;;3.35;1.90;;;4.90;99.90;;;;;;5095285;28;20430;-58
2023/03/08 00:15:39;;;;;;;3.90;1.40;;;5.00;99.90;;;;;;5093430;28;20716;-58
2023/03/08 00:18:06;;;;;;;3.45;1.40;;;5.00;99.90;;;;;;5095008;28;20426;-58
2023/03/08 00:20:34;;;;;;;3.53;1.50;;;5.10;99.90;;;;;;5095534;28;20429;-58
2023/03/08 00:23:01;;;;;;;2.90;1.30;;;5.20;99.90;;;;;;5094940;28;20418;-60
2023/03/08 00:25:28;;;;;;;3.10;1.20;;;5.20;99.90;;;;;;5093872;28;20446;-57
2023/03/08 00:27:55;;;;;;;2.35;1.50;;;5.10;99.90;;;;;;5094136;28;20421;-58
2023/03/08 00:30:23;;;;;;;3.33;1.98;;;5.10;99.90;;;;;;5094808;28;20747;-58
2023/03/08 00:32:50;;;;;;;3.03;1.50;;;5.20;99.90;;;;;;5093323;28;20437;-56
2023/03/08 00:35:18;;;;;;;3.30;1.50;;;5.30;99.90;;;;;;5093189;28;20426;-57
2023/03/08 00:37:45;;;;;;;2.72;1.55;;;5.20;99.90;;;;;;5093168;28;20789;-58
2023/03/08 00:40:13;;;;;;;3.40;1.23;;;5.30;99.90;;;;;;5092781;28;20428;-58
2023/03/08 00:42:40;;;;;;;3.72;1.60;;;5.10;99.90;;;;;;5090721;28;20409;-58
2023/03/08 00:45:08;;;;;;;3.70;1.40;;;5.20;99.90;;;;;;5092083;28;20426;-58
2023/03/08 00:47:38;;;;;;;4.07;1.50;;;5.10;99.90;;;;;;5092229;28;20429;-56
2023/03/08 00:50:06;;;;;;;3.60;1.60;;;5.10;99.90;;;;;;5093275;28;20426;-58
2023/03/08 00:52:33;;;;;;;3.58;1.80;;;5.00;99.90;;;;;;5092818;28;20433;-58
2023/03/08 00:55:00;;;;;;;5.15;1.80;;;5.10;99.90;;;;;;5092250;28;20421;-58
2023/03/08 00:57:27;;;;;;;2.17;1.50;;;5.10;99.90;;;;;;5093303;28;20424;-58
2023/03/08 00:59:54;;;;;;;2.38;1.30;;;5.20;99.90;;;;;;5090992;28;20839;-58
2023/03/08 01:02:21;;;;;;;3.35;1.80;;;5.30;99.90;;;;;;5092186;28;20410;-57
2023/03/08 01:04:50;;;;;;;2.90;1.60;;;5.20;99.90;;;;;;5092049;28;20429;-56
2023/03/08 01:07:17;;;;;;;4.57;1.90;;;5.10;99.90;;;;;;5092370;28;20689;-58
2023/03/08 01:09:44;;;;;;;2.10;1.40;;;5.00;99.90;;;;;;5092826;28;20421;-57
2023/03/08 01:12:11;;;;;;;5.25;1.83;;;4.90;99.90;;;;;;5093875;28;20433;-58
2023/03/08 01:14:38;;;;;;;3.65;1.98;;;4.90;99.90;;;;;;5093230;28;20426;-56
2023/03/08 01:17:05;;;;;;;3.25;1.70;;;4.80;99.90;;;;;;5093284;28;20417;-59
2023/03/08 01:19:32;;;;;;;3.45;1.70;;;4.90;99.90;;;;;;5093590;28;20430;-57
2023/03/08 01:22:00;;;;;;;6.35;2.90;;;4.80;99.90;;;;;;5093740;28;20511;-57
2023/03/08 01:24:27;;;;;;;3.22;1.60;;;4.80;99.90;;;;;;5094037;28;20430;-58
2023/03/08 01:26:57;;;;;;;3.72;2.10;;;5.00;99.90;;;;;;5093846;28;20418;-57
2023/03/08 01:29:24;;;;;;;4.65;1.40;;;4.80;99.90;;;;;;5094399;28;20733;-58
2023/03/08 01:31:51;;;;;;;3.40;1.85;;;4.80;99.90;;;;;;5094049;28;20426;-58
2023/03/08 01:34:18;;;;;;;3.75;2.20;;;4.70;99.90;;;;;;5094195;28;20738;-58
2023/03/08 01:36:45;;;;;;;4.35;2.00;;;4.70;99.90;;;;;;5092926;28;20745;-57
2023/03/08 01:39:14;;;;;;;5.60;2.22;;;4.50;99.90;;;;;;5093133;28;20697;-58
2023/03/08 01:41:41;;;;;;;4.13;2.15;;;4.50;99.90;;;;;;5094522;28;20429;-58
2023/03/08 01:44:14;;;;;;;4.10;2.10;;;4.60;99.90;;;;;;5094252;28;20422;-57
2023/03/08 01:46:41;;;;;;;8.07;2.58;;;4.50;99.90;;;;;;5095273;28;20425;-57
2023/03/08 01:49:11;;;;;;;6.00;2.17;;;4.50;99.90;;;;;;5097406;28;20441;-58
2023/03/08 01:51:42;;;;;;;4.60;2.20;;;4.50;99.90;;;;;;5097120;28;20430;-55
2023/03/08 01:54:14;;;;;;;3.58;2.05;;;4.50;99.90;;;;;;5097054;28;20418;-57
2023/03/08 01:56:44;;;;;;;5.50;3.00;;;4.40;99.90;;;;;;5094836;28;20422;-58
2023/03/08 01:59:12;;;;;;;4.40;2.60;;;4.30;99.90;;;;;;5097651;28;20433;-58
2023/03/08 02:01:39;;;;;;;4.57;2.20;;;4.20;99.90;;;;;;5096669;28;20421;-58
2023/03/08 02:04:07;;;;;;;3.63;2.30;;;4.10;99.90;;;;;;5096725;28;20733;-58
2023/03/08 02:06:34;;;;;;;4.20;1.95;;;4.10;99.90;;;;;;5097083;28;20418;-58
2023/03/08 02:09:04;;;;;;;5.82;2.05;;;4.10;99.90;;;;;;5097071;28;20426;-58
2023/03/08 02:11:34;;;;;;;3.97;2.05;;;4.10;99.90;;;;;;5096640;28;20465;-57
2023/03/08 02:14:01;;;;;;;4.68;2.05;;;4.10;99.90;;;;;;5096324;28;20711;-57
2023/03/08 02:16:28;;;;;;;3.90;1.77;;;3.90;99.90;;;;;;5096778;28;20849;-58
2023/03/08 02:18:58;;;;;;;5.05;2.03;;;4.00;99.90;;;;;;5096038;28;20426;-57
2023/03/08 02:21:26;;;;;;;4.45;1.95;;;4.00;99.90;;;;;;5095684;28;20872;-57
2023/03/08 02:23:55;;;;;;;5.63;2.05;;;4.00;99.90;;;;;;5096594;28;20813;-57
2023/03/08 02:26:23;;;;;;;4.13;2.38;;;4.20;99.90;;;;;;5096709;28;20491;-56
2023/03/08 02:28:50;;;;;;;5.33;2.30;;;4.00;99.90;;;;;;5096504;28;20425;-56
2023/03/08 02:31:17;;;;;;;4.97;2.25;;;4.00;99.90;;;;;;5096371;28;20717;-58
2023/03/08 02:33:44;;;;;;;4.93;2.28;;;3.90;99.90;;;;;;5095969;28;20437;-57
2023/03/08 02:36:11;;;;;;;4.40;2.50;;;4.00;99.90;;;;;;5097479;28;20842;-58
2023/03/08 02:38:38;;;;;;;3.70;1.85;;;4.00;99.90;;;;;;5096955;28;20424;-58
2023/03/08 02:41:07;;;;;;;3.78;1.98;;;4.10;99.90;;;;;;5096653;28;20422;-58
2023/03/08 02:43:34;;;;;;;4.30;1.50;;;4.00;99.90;;;;;;5096171;28;20737;-58
2023/03/08 02:46:01;;;;;;;5.60;2.00;;;4.00;99.90;;;;;;5096406;28;20433;-58
2023/03/08 02:48:28;;;;;;;3.60;1.90;;;4.00;99.90;;;;;;5096577;28;20422;-58
2023/03/08 02:50:55;;;;;;;4.22;2.10;;;3.90;99.90;;;;;;5097125;28;20931;-58
2023/03/08 02:53:22;;;;;;;4.53;2.17;;;3.80;99.90;;;;;;5096758;28;20502;-59
2023/03/08 02:55:49;;;;;;;5.40;2.10;;;3.80;99.90;;;;;;5096300;28;20418;-58
2023/03/08 02:58:18;;;;;;;4.50;2.33;;;3.90;99.90;;;;;;5096616;28;20418;-58
2023/03/08 03:00:45;;;;;;;5.20;2.30;;;4.00;99.90;;;;;;5096493;28;20421;-58
2023/03/08 03:03:12;;;;;;;3.70;1.80;;;4.10;99.90;;;;;;5096623;28;20414;-57
2023/03/08 03:05:43;;;;;;;3.87;2.00;;;4.10;99.90;;;;;;5096587;28;20414;-57
2023/03/08 03:08:10;;;;;;;4.53;1.70;;;4.10;99.90;;;;;;5097127;28;20414;-58
2023/03/08 03:10:38;;;;;;;5.25;2.38;;;4.10;99.90;;;;;;5096722;28;20729;-57
2023/03/08 03:13:05;;;;;;;4.85;2.05;;;4.10;99.90;;;;;;5096464;28;20430;-57
2023/03/08 03:15:37;;;;;;;5.45;2.50;;;4.20;99.90;;;;;;5090617;28;20977;-58
2023/03/08 03:18:05;;;;;;;3.38;1.70;;;4.20;99.90;;;;;;5095169;28;20995;-62
2023/03/08 03:20:32;;;;;;;2.83;1.58;;;4.30;99.90;;;;;;5095057;28;20429;-58
2023/03/08 03:22:59;;;;;;;4.90;2.10;;;4.30;99.90;;;;;;5094617;28;20461;-58
2023/03/08 03:25:26;;;;;;;2.90;1.60;;;4.30;99.90;;;;;;5075188;28;20435;-57
2023/03/08 03:27:54;;;;;;;3.80;1.88;;;4.40;99.90;;;;;;5076743;28;20443;-57
2023/03/08 03:30:22;;;;;;;4.47;1.60;;;4.30;99.90;;;;;;5096020;28;20426;-58
2023/03/08 03:32:51;;;;;;;4.40;1.70;;;4.40;99.90;;;;;;5094643;28;20434;-58
2023/03/08 03:35:18;;;;;;;4.68;1.75;;;4.30;99.90;;;;;;5095959;28;20433;-57
2023/03/08 03:37:45;;;;;;;4.10;1.80;;;4.20;99.90;;;;;;5094886;28;20441;-59
2023/03/08 03:40:14;;;;;;;5.07;2.08;;;4.20;99.90;;;;;;5093335;28;20844;-58
2023/03/08 03:42:41;;;;;;;3.40;1.70;;;4.20;99.90;;;;;;5094374;28;20441;-55
2023/03/08 03:45:08;;;;;;;3.97;1.73;;;4.10;99.90;;;;;;5095486;28;20425;-56
2023/03/08 03:47:35;;;;;;;3.00;1.80;;;4.10;99.90;;;;;;5095571;28;20734;-59
2023/03/08 03:50:04;;;;;;;2.90;1.70;;;4.00;99.90;;;;;;5094599;28;20445;-58
2023/03/08 03:52:32;;;;;;;3.45;1.50;;;4.00;99.90;;;;;;5092258;28;20853;-58
2023/03/08 03:54:59;;;;;;;4.70;1.90;;;4.00;99.90;;;;;;5095568;28;20426;-58
2023/03/08 03:57:26;;;;;;;3.17;1.80;;;3.90;99.90;;;;;;5095879;28;20699;-58
2023/03/08 03:59:53;;;;;;;3.60;2.10;;;4.00;99.90;;;;;;5093921;28;20491;-58
2023/03/08 04:02:20;;;;;;;4.90;1.70;;;3.90;99.90;;;;;;5095387;28;20424;-58
2023/03/08 04:04:50;;;;;;;4.38;2.08;;;4.00;99.90;;;;;;5095164;28;20437;-58
2023/03/08 04:07:18;;;;;;;4.43;2.30;;;4.00;99.90;;;;;;5092350;28;20437;-58
2023/03/08 04:09:46;;;;;;;4.88;2.00;;;4.10;99.90;;;;;;5095245;28;20841;-58
2023/03/08 04:12:13;;;;;;;4.75;1.83;;;4.20;99.90;;;;;;5094730;28;20424;-58
2023/03/08 04:14:40;;;;;;;3.90;1.80;;;4.10;99.90;;;;;;5094998;28;20433;-58
2023/03/08 04:17:08;;;;;;;3.83;2.00;;;4.20;99.90;;;;;;5093815;28;20437;-58
2023/03/08 04:19:35;;;;;;;5.28;1.98;;;4.20;99.90;;;;;;5095158;28;20429;-56
2023/03/08 04:22:02;;;;;;;4.85;2.25;;;4.20;99.90;;;;;;5092154;28;20434;-58
2023/03/08 04:24:31;;;;;;;3.92;2.05;;;4.20;99.90;;;;;;5095041;28;20430;-57
2023/03/08 04:26:58;;;;;;;3.80;2.10;;;4.10;99.90;;;;;;5095160;28;20418;-58
2023/03/08 04:29:25;;;;;;;4.57;2.15;;;4.10;99.90;;;;;;5094289;28;20429;-58
2023/03/08 04:31:54;;;;;;;3.95;1.90;;;4.10;99.90;;;;;;5093532;28;20433;-55
2023/03/08 04:34:21;;;;;;;3.80;1.90;;;4.10;99.90;;;;;;5094448;28;20853;-58
2023/03/08 04:36:48;;;;;;;4.00;1.75;;;4.10;99.90;;;;;;5094637;28;20425;-58
2023/03/08 04:39:15;;;;;;;4.97;1.75;;;4.10;99.90;;;;;;5095378;28;20433;-58
2023/03/08 04:41:44;;;;;;;5.35;2.00;;;4.10;99.90;;;;;;5092549;28;20924;-59
2023/03/08 04:44:11;;;;;;;3.03;1.45;;;4.10;99.90;;;;;;5094334;28;20780;-58
2023/03/08 04:46:38;;;;;;;5.90;1.90;;;4.30;99.90;;;;;;5093469;28;20424;-58
2023/03/08 04:49:05;;;;;;;4.75;2.25;;;4.30;99.90;;;;;;5092629;28;20442;-59
2023/03/08 04:51:32;;;;;;;6.07;2.65;;;4.30;99.90;;;;;;5090141;28;20430;-58
2023/03/08 04:53:59;;;;;;;4.20;1.60;;;4.30;99.90;;;;;;5094138;28;20707;-60
2023/03/08 04:56:26;;;;;;;4.20;1.83;;;4.20;99.90;;;;;;5094421;28;20455;-57
2023/03/08 04:58:55;;;;;;;4.15;2.10;;;4.30;99.90;;;;;;5087228;28;20471;-55
2023/03/08 05:01:23;;;;;;;3.78;1.80;;;4.30;99.90;;;;;;5073490;28;20419;-56
2023/03/08 05:03:51;;;;;;;4.33;2.00;;;4.30;99.90;;;;;;5073274;28;20430;-58
2023/03/08 05:06:19;;;;;;;2.95;1.50;;;4.30;99.90;;;;;;5073583;28;20419;-57
2023/03/08 05:08:46;;;;;;;3.60;1.50;;;4.40;99.90;;;;;;5087204;28;20442;-58
2023/03/08 05:11:18;;;;;;;3.75;1.80;;;4.40;99.90;;;;;;5093519;28;20422;-56
2023/03/08 05:13:45;;;;;;;2.70;1.60;;;4.50;99.90;;;;;;5089987;28;20436;-58
2023/03/08 05:16:14;;;;;;;4.68;1.98;;;4.50;99.90;;;;;;5094159;28;20437;-56
2023/03/08 05:18:41;;;;;;;3.10;1.80;;;4.40;99.90;;;;;;5094136;28;20430;-58
2023/03/08 05:21:11;;;;;;;3.97;1.80;;;4.40;99.90;;;;;;5093763;28;20418;-57
2023/03/08 05:23:38;;;;;;;4.67;2.20;;;4.40;99.90;;;;;;5093997;28;20433;-59
2023/03/08 05:26:08;;;;;;;4.75;2.35;;;4.40;99.90;;;;;;5097685;28;20418;-59
2023/03/08 05:28:37;;;;;;;4.65;2.10;;;4.40;99.90;;;;;;5097116;28;20890;-55
2023/03/08 05:31:05;;;;;;;4.35;2.20;;;4.50;99.90;;;;;;5097162;28;20443;-57
2023/03/08 05:33:34;;;;;;;4.38;2.40;;;4.50;99.90;;;;;;5094894;28;20445;-58
2023/03/08 05:36:01;;;;;;;3.90;2.03;;;4.40;99.90;;;;;;5095989;28;20414;-58
2023/03/08 05:38:29;;;;;;;3.83;1.63;;;4.50;99.90;;;;;;5096711;28;20861;-58
2023/03/08 05:41:00;;;;;;;4.60;2.10;;;4.60;99.90;;;;;;5091342;28;20854;-55
2023/03/08 05:43:27;;;;;;;5.55;2.40;;;4.70;99.90;;;;;;5096586;28;20885;-57
2023/03/08 05:45:56;;;;;;;6.40;2.45;;;4.80;99.90;;;;;;5096783;28;20414;-56
2023/03/08 05:48:23;;;;;;;7.20;2.78;;;4.60;99.90;;;;;;5096511;28;20430;-57
2023/03/08 05:50:52;;;;;;;4.68;2.00;;;4.50;99.90;;;;;;5094844;28;20540;-58
2023/03/08 05:53:19;;;;;;;4.53;2.25;;;4.60;99.90;;;;;;5096070;28;20421;-58
2023/03/08 05:55:46;;;;;;;4.57;2.03;;;4.60;99.90;;;;;;5097649;28;20417;-59
2023/03/08 05:58:13;;;;;;;5.40;2.40;;;4.70;99.90;;;;;;5096700;28;20414;-59
2023/03/08 06:00:40;;;;;;;4.30;2.42;;;4.70;99.90;;;;;;5092255;28;20755;-57
2023/03/08 06:03:07;;;;;;;6.63;2.10;;;4.60;99.90;;;;;;5097078;28;20418;-56
2023/03/08 06:05:35;;;;;;;5.75;2.10;;;4.60;99.90;;;;;;5096533;28;21026;-58
2023/03/08 06:08:03;;;;;;;4.47;2.60;;;4.70;99.90;;;;;;5096992;28;20429;-58
2023/03/08 06:10:30;;;;;;;5.50;2.28;;;4.70;99.90;;;;;;5095859;28;20445;-56
2023/03/08 06:12:57;;;;;;;4.63;2.00;;;4.70;99.90;;;;;;5096845;28;20418;-59
2023/03/08 06:15:24;;;;;;;6.20;2.35;;;4.90;99.90;;;;;;5091607;28;21122;-58
2023/03/08 06:17:53;;;;;;;6.38;2.42;;;4.80;99.90;;;;;;5095293;28;20889;-58
2023/03/08 06:20:20;;;;;;;4.47;2.72;;;4.80;99.90;;;;;;5092472;28;20438;-58
2023/03/08 06:22:48;;;;;;;3.83;1.92;;;5.00;99.90;;;;;;5092982;28;20425;-59
2023/03/08 06:25:17;;;;;;;5.90;3.00;;;5.10;99.90;;;;;;5093745;28;20422;-58
2023/03/08 06:27:44;;;;;;;5.15;3.05;;;5.20;99.90;;;;;;5093214;28;20414;-58
2023/03/08 06:30:12;;;;;;;6.83;3.20;;;5.00;99.90;;;;;;5072250;28;20885;-58
2023/03/08 06:32:39;;;;;;;6.18;3.20;;;5.00;99.90;;;;;;5092133;28;20879;-59
2023/03/08 06:35:07;;;;;;;6.10;3.20;;;4.90;99.90;;;;;;5094797;28;20429;-57
2023/03/08 06:37:34;;;;;;;4.32;3.00;;;4.90;99.90;;;;;;5094963;28;20422;-56
2023/03/08 06:40:04;;;;;;;4.90;3.08;;;4.80;99.90;;;;;;5092423;28;20849;-57
2023/03/08 06:42:33;;;;;;;5.88;3.63;;;4.80;99.90;;;;;;5092153;28;20414;-57
2023/03/08 06:45:00;;;;;;;8.55;3.15;;;4.80;99.90;;;;;;5095406;28;20848;-57
2023/03/08 06:47:29;;;;;;;9.52;3.53;;;4.80;99.90;;;;;;5093776;28;20864;-57
2023/03/08 06:49:56;;;;;;;7.22;3.40;;;4.90;99.90;;;;;;5090742;28;20437;-56
2023/03/08 06:52:23;;;;;;;7.95;3.70;;;4.90;99.90;;;;;;5092171;28;20425;-57
2023/03/08 06:54:51;;;;;;;6.93;3.70;;;5.00;99.90;;;;;;5095162;28;20433;-58
2023/03/08 06:57:18;;;;;;;8.27;4.53;;;5.00;99.90;;;;;;5095096;28;20861;-58
2023/03/08 06:59:46;;;;;;;7.13;3.35;;;5.10;99.90;;;;;;5094447;28;20425;-59
2023/03/08 07:02:15;;;;;;;8.23;3.60;;;5.10;99.90;;;;;;5094282;28;20422;-57
2023/03/08 07:04:42;;;;;;;6.88;3.63;;;5.20;99.90;;;;;;5096056;28;20421;-58
2023/03/08 07:07:10;;;;;;;6.05;3.22;;;5.30;99.90;;;;;;5086800;28;20437;-57
2023/03/08 07:09:37;;;;;;;7.90;4.13;;;5.40;99.90;;;;;;5095423;28;20517;-59
2023/03/08 07:12:04;;;;;;;10.23;4.30;;;5.60;99.90;;;;;;5095023;28;20413;-60
2023/03/08 07:14:31;;;;;;;6.65;4.10;;;5.60;99.90;;;;;;5094527;28;20434;-60
2023/03/08 07:17:00;;;;;;;8.45;4.60;;;5.50;99.90;;;;;;5092389;28;20513;-60
2023/03/08 07:19:27;;;;;;;6.90;3.72;;;5.40;99.90;;;;;;5092970;28;20716;-60
2023/03/08 07:21:54;;;;;;;7.40;4.70;;;5.40;99.90;;;;;;5090213;28;20429;-59
2023/03/08 07:24:21;;;;;;;5.50;3.83;;;5.40;99.90;;;;;;5092604;28;21054;-54
2023/03/08 07:26:48;;;;;;;7.07;3.85;;;5.50;99.90;;;;;;5091969;28;20425;-57
2023/03/08 07:29:15;;;;;;;5.45;3.45;;;5.60;99.90;;;;;;5091488;28;20773;-58
2023/03/08 07:31:42;;;;;;;6.10;3.17;;;5.70;99.90;;;;;;5088345;28;20742;-56
2023/03/08 07:34:10;;;;;;;7.32;4.22;;;5.80;99.90;;;;;;5088962;28;20892;-57
2023/03/08 07:36:38;;;;;;;6.00;3.65;;;5.70;99.90;;;;;;5092793;28;20460;-58
2023/03/08 07:39:05;;;;;;;6.50;3.33;;;5.70;99.90;;;;;;5093437;28;20437;-57
2023/03/08 07:41:33;;;;;;;7.10;3.30;;;5.80;99.90;;;;;;5092029;28;20684;-58
2023/03/08 07:44:01;;;;;;;5.82;3.45;;;5.80;99.90;;;;;;5091694;28;20465;-57
2023/03/08 07:46:28;;;;;;;6.30;3.55;;;5.80;99.90;;;;;;5092443;28;20516;-57
2023/03/08 07:48:55;;;;;;;7.30;3.50;;;5.70;99.90;;;;;;5093545;28;20426;-57
2023/03/08 07:51:24;;;;;;;5.93;3.70;;;5.60;99.90;;;;;;5080971;28;20439;-55
2023/03/08 07:53:52;;;;;;;5.20;3.33;;;5.80;99.90;;;;;;5071720;28;20439;-56
2023/03/08 07:56:19;;;;;;;5.05;3.40;;;6.10;99.90;;;;;;5084371;28;20439;-57
2023/03/08 07:58:46;;;;;;;7.03;3.00;;;6.10;99.90;;;;;;5092219;28;20429;-57
2023/03/08 08:01:14;;;;;;;6.18;3.67;;;5.90;99.90;;;;;;5090848;28;20443;-58
2023/03/08 08:03:42;;;;;;;7.03;3.95;;;5.90;99.90;;;;;;5090276;28;20856;-58
2023/03/08 08:06:09;;;;;;;6.27;3.57;;;5.90;99.90;;;;;;5091685;28;20730;-57
2023/03/08 08:08:38;;;;;;;5.65;3.75;;;5.90;99.90;;;;;;5090877;28;20437;-57
2023/03/08 08:11:11;;;;;;;5.63;2.58;;;5.80;99.90;;;;;;5091523;28;20421;-57
2023/03/08 08:13:38;;;;;;;5.85;2.70;;;5.80;99.90;;;;;;5090484;28;20461;-57
2023/03/08 08:16:07;;;;;;;6.07;2.58;;;5.80;99.90;;;;;;5086575;28;20710;-57
2023/03/08 08:18:34;;;;;;;7.60;3.30;;;5.80;99.90;;;;;;5090192;28;20699;-58
2023/03/08 08:21:02;;;;;;;5.60;3.03;;;5.80;99.90;;;;;;5091382;28;20424;-60
2023/03/08 08:23:30;;;;;;;5.18;2.65;;;5.90;99.90;;;;;;5093408;28;20475;-59
2023/03/08 08:25:58;;;;;;;4.20;2.30;;;5.80;99.90;;;;;;5091789;28;20413;-58
2023/03/08 08:28:27;;;;;;;5.30;2.70;;;5.70;99.90;;;;;;5091997;28;20788;-60
2023/03/08 08:30:58;;;;;;;4.40;2.22;;;5.70;99.90;;;;;;5090289;28;20434;-59
2023/03/08 08:33:25;;;;;;;4.50;2.80;;;5.70;99.90;;;;;;5091466;28;20426;-60
2023/03/08 08:35:52;;;;;;;5.72;1.90;;;5.70;99.90;;;;;;5084025;28;20613;-60
2023/03/08 08:38:19;;;;;;;4.90;2.33;;;5.70;99.90;;;;;;5071824;28;20635;-60
2023/03/08 08:40:47;;;;;;;5.60;3.17;;;5.90;99.90;;;;;;5075124;28;20415;-59
2023/03/08 08:43:16;;;;;;;5.82;2.45;;;6.00;99.90;;;;;;5087953;28;20434;-59
2023/03/08 08:45:44;;;;;;;4.63;2.28;;;6.00;99.90;;;;;;5088234;28;20437;-59
2023/03/08 08:48:11;;;;;;;4.80;2.00;;;6.10;99.90;;;;;;5090997;28;20499;-58
2023/03/08 08:50:38;;;;;;;5.03;2.65;;;6.20;99.90;;;;;;5084341;28;20440;-59
2023/03/08 08:53:06;;;;;;;4.90;2.20;;;6.30;99.90;;;;;;5088245;28;20451;-59
2023/03/08 08:55:33;;;;;;;4.80;2.70;;;6.30;99.90;;;;;;5089817;28;20772;-60
2023/03/08 08:58:00;;;;;;;5.35;2.97;;;6.30;99.90;;;;;;5091295;28;20919;-60
2023/03/08 09:00:29;;;;;;;5.72;2.67;;;6.20;99.90;;;;;;5086351;28;20911;-60
2023/03/08 09:02:56;;;;;;;4.70;2.45;;;6.10;99.90;;;;;;5093641;28;20533;-60
2023/03/08 09:05:24;;;;;;;4.00;2.10;;;6.10;99.90;;;;;;5093396;28;20853;-60
2023/03/08 09:07:53;;;;;;;6.65;2.45;;;6.10;99.90;;;;;;5091588;28;20742;-60
2023/03/08 09:10:21;;;;;;;4.40;2.33;;;6.10;99.90;;;;;;5085767;28;20469;-60
2023/03/08 09:12:48;;;;;;;5.78;2.35;;;6.20;99.90;;;;;;5087042;28;20446;-59
2023/03/08 09:15:15;;;;;;;6.55;3.10;;;6.40;99.90;;;;;;5087045;28;20440;-59
2023/03/08 09:17:43;;;;;;;5.68;2.75;;;6.30;99.90;;;;;;5087810;28;20424;-60
2023/03/08 09:20:11;;;;;;;5.10;2.53;;;6.40;99.90;;;;;;5085000;28;20438;-60
2023/03/08 09:22:39;;;;;;;7.93;3.55;;;6.50;99.90;;;;;;5087806;28;20601;-59
2023/03/08 09:25:08;;;;;;;3.95;2.72;;;6.50;99.90;;;;;;5091122;28;20430;-60
2023/03/08 09:27:36;;;;;;;6.72;3.80;;;6.40;99.90;;;;;;5095449;28;20421;-60
2023/03/08 09:30:04;;;;;;;6.03;3.70;;;6.40;99.90;;;;;;5094031;28;20456;-60
2023/03/08 09:32:33;;;;;;;4.53;2.30;;;6.40;99.90;;;;;;5092831;28;20461;-60
2023/03/08 09:35:03;;;;;;;4.27;2.77;;;6.50;99.90;;;;;;5093957;28;20759;-60
2023/03/08 09:37:30;;;;;;;6.78;3.28;;;6.50;99.90;;;;;;5093616;28;20417;-60
2023/03/08 09:39:57;;;;;;;7.13;3.00;;;6.50;99.90;;;;;;5090955;28;20494;-60
2023/03/08 09:42:29;;;;;;;5.97;2.97;;;6.50;99.90;;;;;;5094585;28;20884;-60
2023/03/08 09:45:16;;;;;;;6.50;3.50;;;6.60;99.90;;;;;;5094517;28;20569;-60
2023/03/08 09:47:47;;;;;;;6.65;3.45;;;6.60;99.90;;;;;;5094968;28;20490;-60
2023/03/08 09:50:37;;;;;;;6.55;3.33;;;6.70;99.90;;;;;;5074887;28;20431;-60
2023/03/08 09:53:11;;;;;;;5.72;3.55;;;6.70;99.90;;;;;;5064049;28;20757;-60
2023/03/08 09:55:45;;;;;;;5.63;3.20;;;6.90;99.90;;;;;;5075970;28;20438;-60
2023/03/08 09:58:22;;;;;;;9.43;3.53;;;7.00;99.90;;;;;;5088389;28;20441;-60
2023/03/08 10:00:49;;;;;;;7.53;3.35;;;7.10;99.90;;;;;;5092708;28;20437;-60
2023/03/08 10:03:42;;;;;;;7.32;3.80;;;7.30;99.90;;;;;;5092086;28;20434;-59
2023/03/08 10:06:18;;;;;;;6.30;3.40;;;7.30;99.90;;;;;;5078365;28;20426;-59
2023/03/08 10:08:53;;;;;;;4.82;2.20;;;7.40;99.90;;;;;;5092670;28;20887;-60
2023/03/08 10:11:25;;;;;;;5.15;2.45;;;7.50;99.90;;;;;;5086841;28;20435;-60
2023/03/08 10:13:56;;;;;;;3.58;2.10;;;7.70;99.90;;;;;;5090914;28;20771;-61
2023/03/08 10:16:27;;;;;;;4.73;1.90;;;7.80;99.90;;;;;;5094114;28;20539;-61
2023/03/08 10:19:00;;;;;;;3.20;1.80;;;8.00;99.90;;;;;;5093140;28;20437;-60
2023/03/08 10:21:32;;;;;;;2.20;1.20;;;8.10;99.90;;;;;;5088022;28;20437;-60
2023/03/08 10:24:02;;;;;;;3.38;1.30;;;8.20;99.90;;;;;;5094186;28;20438;-61
2023/03/08 10:26:32;;;;;;;4.97;1.40;;;8.30;99.90;;;;;;5094046;28;20502;-61
2023/03/08 10:29:01;;;;;;;2.22;1.20;;;8.50;99.90;;;;;;5090120;28;20437;-60
2023/03/08 10:31:32;;;;;;;2.60;1.25;;;8.40;99.90;;;;;;5087829;28;20426;-61
2023/03/08 10:34:08;;;;;;;1.55;1.00;;;8.60;99.90;;;;;;5088508;28;20429;-61
2023/03/08 10:36:48;;;;;;;3.00;1.10;;;8.70;99.90;;;;;;5094298;28;20469;-62
2023/03/08 10:39:16;;;;;;;2.20;1.10;;;8.90;99.90;;;;;;5077232;28;20427;-60
2023/03/08 10:41:46;;;;;;;1.90;1.00;;;9.00;99.90;;;;;;5084652;28;20433;-63
2023/03/08 10:44:30;;;;;;;1.60;0.90;;;9.00;99.90;;;;;;5078951;28;20708;-62
2023/03/08 10:46:58;;;;;;;2.17;0.90;;;9.20;99.90;;;;;;5092132;28;20456;-63
2023/03/08 10:49:26;;;;;;;1.50;0.80;;;9.30;99.90;;;;;;5095060;28;20453;-63
2023/03/08 10:51:59;;;;;;;2.43;1.10;;;9.50;99.90;;;;;;5092924;28;20418;-64
2023/03/08 10:54:28;;;;;;;1.40;0.80;;;9.80;99.90;;;;;;5089104;28;20437;-63
2023/03/08 10:56:59;;;;;;;2.15;1.20;;;9.90;99.90;;;;;;5080943;28;20432;-63
2023/03/08 10:59:33;;;;;;;1.42;0.73;;;10.10;99.90;;;;;;5086416;28;20429;-64
2023/03/08 11:02:09;;;;;;;1.17;0.70;;;10.30;99.90;;;;;;5094432;28;20414;-62
2023/03/08 11:04:37;;;;;;;1.00;0.60;;;10.40;99.90;;;;;;5090503;28;20442;-63
2023/03/08 11:07:24;;;;;;;1.30;0.70;;;10.40;99.90;;;;;;5091144;28;20541;-63
2023/03/08 11:09:52;;;;;;;1.42;0.50;;;10.50;99.90;;;;;;5088541;28;20487;-63
2023/03/08 11:12:24;;;;;;;1.00;0.40;;;10.70;99.90;;;;;;5086256;28;20469;-65
2023/03/08 11:14:53;;;;;;;1.20;0.40;;;10.60;99.90;;;;;;5091089;28;20837;-64
2023/03/08 11:17:27;;;;;;;0.70;0.40;;;10.90;99.90;;;;;;5093959;28;20418;-64
2023/03/08 11:20:10;;;;;;;0.77;0.40;;;11.00;99.90;;;;;;5090764;28;20707;-64
2023/03/08 11:23:02;;;;;;;0.60;0.30;;;11.10;99.90;;;;;;5090022;28;20430;-64
2023/03/08 11:25:39;;;;;;;1.70;0.30;;;11.20;99.90;;;;;;5094618;28;20426;-64
2023/03/08 11:28:38;;;;;;;0.50;0.30;;;11.00;99.90;;;;;;5087296;28;20914;-63
2023/03/08 11:31:16;;;;;;;0.70;0.30;;;11.00;99.90;;;;;;5068000;28;20469;-63
2023/03/08 11:34:13;;;;;;;0.65;0.30;;;11.00;99.90;;;;;;5070602;28;20430;-65
2023/03/08 11:36:48;;;;;;;1.00;0.40;;;11.10;99.90;;;;;;5060919;28;20497;-63
2023/03/08 11:39:29;;;;;;;0.60;0.30;;;11.10;99.90;;;;;;5073420;28;21039;-65
2023/03/08 11:42:05;;;;;;;1.00;0.30;;;11.10;99.90;;;;;;5091526;28;20892;-64
2023/03/08 11:44:56;;;;;;;0.80;0.30;;;11.20;99.90;;;;;;5071061;28;20427;-65
2023/03/08 11:47:43;;;;;;;0.90;0.40;;;11.30;99.90;;;;;;5078111;28;20444;-64
2023/03/08 11:50:18;;;;;;;0.70;0.30;;;11.60;99.90;;;;;;5075952;28;20509;-64
2023/03/08 11:52:59;;;;;;;0.57;0.30;;;11.80;99.90;;;;;;5090017;28;20708;-65
2023/03/08 11:55:39;;;;;;;0.70;0.30;;;11.70;99.90;;;;;;5091880;28;20430;-65
2023/03/08 11:58:14;;;;;;;0.70;0.30;;;11.70;99.90;;;;;;5093600;28;20414;-63
2023/03/08 12:00:43;;;;;;;0.50;0.30;;;11.70;99.90;;;;;;5091588;28;20880;-63
2023/03/08 12:03:14;;;;;;;2.55;0.43;;;11.60;99.90;;;;;;5092270;28;20830;-63
2023/03/08 12:05:45;;;;;;;0.90;0.30;;;11.80;99.90;;;;;;5088900;28;20433;-63
2023/03/08 12:08:16;;;;;;;0.52;0.30;;;11.80;99.90;;;;;;5091551;28;20833;-61
2023/03/08 12:10:50;;;;;;;0.50;0.30;;;11.80;99.90;;;;;;5090308;28;20417;-61
2023/03/08 12:13:22;;;;;;;0.50;0.30;;;11.80;99.90;;;;;;5088131;28;20741;-62
2023/03/08 12:15:54;;;;;;;0.43;0.20;;;11.80;99.90;;;;;;5086203;28;20438;-64
2023/03/08 12:18:29;;;;;;;1.60;0.50;;;11.90;99.90;;;;;;5088207;28;20852;-63
2023/03/08 12:21:04;;;;;;;1.00;0.30;;;12.00;99.90;;;;;;5087347;28;20417;-62
2023/03/08 12:23:37;;;;;;;0.60;0.30;;;12.10;99.90;;;;;;5084035;28;20438;-64
2023/03/08 12:26:13;;;;;;;1.13;0.30;;;12.10;99.90;;;;;;5086852;28;20422;-64
2023/03/08 12:28:44;;;;;;;0.90;0.30;;;12.10;99.90;;;;;;5085601;28;20438;-64
2023/03/08 12:31:24;;;;;;;0.65;0.30;;;12.20;99.90;;;;;;5088506;28;20867;-62
2023/03/08 12:33:52;;;;;;;0.70;0.30;;;12.10;99.90;;;;;;5085690;28;20430;-63
2023/03/08 12:36:21;;;;;;;1.20;0.30;;;12.20;99.90;;;;;;5082093;28;21022;-62
2023/03/08 12:38:54;;;;;;;0.50;0.30;;;12.30;99.90;;;;;;5090033;28;20432;-61
2023/03/08 12:41:26;;;;;;;0.50;0.20;;;12.30;99.90;;;;;;5089355;28;20434;-61
2023/03/08 12:44:04;;;;;;;0.40;0.20;;;12.30;99.90;;;;;;5083612;28;20867;-62
2023/03/08 12:46:50;;;;;;;1.60;0.35;;;12.40;99.90;;;;;;5086143;28;20507;-61
2023/03/08 12:49:26;;;;;;;1.50;0.30;;;12.50;99.90;;;;;;5083290;28;20443;-61
2023/03/08 12:52:02;;;;;;;1.17;0.28;;;12.70;99.90;;;;;;5090620;28;20441;-62
2023/03/08 12:54:32;;;;;;;1.00;0.20;;;12.90;99.90;;;;;;5084528;28;20440;-62
2023/03/08 12:57:03;;;;;;;0.50;0.30;;;12.80;99.90;;;;;;5080800;28;20425;-63
2023/03/08 12:59:35;;;;;;;0.60;0.20;;;12.80;99.90;;;;;;5087564;28;20751;-61
2023/03/08 13:02:19;;;;;;;0.50;0.25;;;12.90;99.90;;;;;;5082162;28;20424;-62
2023/03/08 13:04:46;;;;;;;1.20;0.30;;;13.10;99.90;;;;;;5085439;28;20431;-62
2023/03/08 13:07:25;;;;;;;1.38;0.30;;;13.30;99.90;;;;;;5080428;28;20708;-61